Time;durP1;ratioP1;P1;durP2;ratioP2;P2;SDS_P1;SDS_P2;PMS_P1;PMS_P2;Temp;Humidity;BMP_temperature;BMP_pressure;BME280_temperature;BME280_humidity;BME280_pressure;Samples;Min_cycle;Max_cycle;Signal;HPM_P1;HPM_P2
2021/11/09 00:00:35;;;;;;;9.45;4.05;;;13.90;52.70;;;;;;6254584;28;20037;-77
2021/11/09 00:03:50;;;;;;;8.52;4.25;;;14.00;52.70;;;;;;6269345;28;20052;-77
2021/11/09 00:07:02;;;;;;;12.18;3.55;;;14.00;52.70;;;;;;6270853;28;20072;-77
2021/11/09 00:10:07;;;;;;;10.95;4.18;;;14.00;52.70;;;;;;6262686;28;20039;-78
2021/11/09 00:13:08;;;;;;;6.85;2.80;;;14.00;52.70;;;;;;6266345;28;20025;-76
2021/11/09 00:16:10;;;;;;;5.20;2.72;;;14.00;52.70;;;;;;6263526;28;20358;-77
2021/11/09 00:19:11;;;;;;;4.97;2.78;;;14.00;52.50;;;;;;6246062;28;20048;-77
2021/11/09 00:22:12;;;;;;;9.25;3.55;;;14.00;52.20;;;;;;6260489;28;20453;-76
2021/11/09 00:25:14;;;;;;;5.82;3.42;;;13.90;52.00;;;;;;6260675;28;20025;-76
2021/11/09 00:28:15;;;;;;;12.57;4.13;;;13.90;52.00;;;;;;6257297;28;20032;-77
2021/11/09 00:31:16;;;;;;;6.50;3.47;;;13.90;52.10;;;;;;6258982;28;20127;-76
2021/11/09 00:34:17;;;;;;;10.00;3.20;;;13.90;52.30;;;;;;6262267;28;20038;-76
2021/11/09 00:37:18;;;;;;;6.53;3.35;;;13.90;52.10;;;;;;6260085;28;22176;-77
2021/11/09 00:40:22;;;;;;;13.48;4.68;;;13.90;52.70;;;;;;6258875;28;20048;-77
2021/11/09 00:43:24;;;;;;;10.25;4.20;;;13.90;52.70;;;;;;6262194;28;20378;-76
2021/11/09 00:46:25;;;;;;;11.32;4.28;;;13.90;52.70;;;;;;6268386;28;20025;-76
2021/11/09 00:49:26;;;;;;;8.27;4.55;;;13.90;52.80;;;;;;6270933;28;20036;-77
2021/11/09 00:52:27;;;;;;;15.35;4.88;;;13.90;52.80;;;;;;6270598;28;20036;-76
2021/11/09 00:55:29;;;;;;;9.38;3.65;;;13.90;52.80;;;;;;6276501;28;20032;-77
2021/11/09 00:58:29;;;;;;;7.95;4.20;;;13.90;53.30;;;;;;6273063;28;20061;-77
2021/11/09 01:01:32;;;;;;;7.65;4.05;;;13.90;52.70;;;;;;6272408;28;20130;-77
2021/11/09 01:04:33;;;;;;;8.57;4.18;;;13.90;52.80;;;;;;6275893;28;20108;-77
2021/11/09 01:07:36;;;;;;;14.60;3.97;;;13.90;53.40;;;;;;6273540;28;20403;-76
2021/11/09 01:10:40;;;;;;;8.35;3.50;;;13.90;52.90;;;;;;6272966;28;20889;-76
2021/11/09 01:13:41;;;;;;;8.93;4.28;;;13.90;52.80;;;;;;6274420;28;20021;-76
2021/11/09 01:16:42;;;;;;;7.85;3.70;;;13.90;52.70;;;;;;6274508;28;20122;-76
2021/11/09 01:19:44;;;;;;;10.40;4.20;;;14.00;53.30;;;;;;6272499;28;20122;-77
2021/11/09 01:22:46;;;;;;;7.38;3.95;;;14.00;52.70;;;;;;6275550;28;20108;-77
2021/11/09 01:25:47;;;;;;;7.22;4.25;;;14.00;52.70;;;;;;6278072;28;20102;-76
2021/11/09 01:28:51;;;;;;;6.63;3.75;;;14.00;52.70;;;;;;6269325;28;20031;-77
2021/11/09 01:31:53;;;;;;;10.40;3.70;;;14.00;52.70;;;;;;6276058;28;20079;-77
2021/11/09 01:34:54;;;;;;;10.57;4.00;;;13.90;52.60;;;;;;6273516;28;20036;-76
2021/11/09 01:37:56;;;;;;;8.32;4.03;;;13.90;52.60;;;;;;6256969;28;20024;-77
2021/11/09 01:40:57;;;;;;;7.28;3.55;;;13.90;52.60;;;;;;6268237;28;20028;-76
2021/11/09 01:43:58;;;;;;;8.48;3.97;;;13.90;52.50;;;;;;6256783;28;20049;-76
2021/11/09 01:46:59;;;;;;;11.80;3.50;;;13.90;52.50;;;;;;6266862;28;20104;-77
2021/11/09 01:50:00;;;;;;;6.05;3.70;;;13.90;52.40;;;;;;6275115;28;20025;-77
2021/11/09 01:53:48;;;;;;;6.85;3.35;;;13.90;52.40;;;;;;6269800;28;20450;-77
2021/11/09 01:56:50;;;;;;;4.63;2.90;;;13.90;52.50;;;;;;6273069;28;20461;-77
2021/11/09 01:59:51;;;;;;;8.05;4.00;;;13.90;52.40;;;;;;6270715;28;20048;-77
2021/11/09 02:02:52;;;;;;;7.38;3.20;;;13.90;52.40;;;;;;6270352;28;20033;-76
2021/11/09 02:05:54;;;;;;;9.45;3.90;;;13.80;52.30;;;;;;6272926;28;20369;-76
2021/11/09 02:09:10;;;;;;;7.90;3.47;;;13.80;52.10;;;;;;6276790;28;20021;-76
2021/11/09 02:12:11;;;;;;;6.90;3.67;;;13.80;52.10;;;;;;6264822;28;20350;-76
2021/11/09 02:15:14;;;;;;;9.88;3.63;;;13.70;52.10;;;;;;6264004;28;20029;-77
2021/11/09 02:18:17;;;;;;;8.20;3.38;;;13.70;52.10;;;;;;6262968;28;20021;-76
2021/11/09 02:22:01;;;;;;;11.45;4.00;;;13.70;52.20;;;;;;6263422;28;20021;-76
2021/11/09 02:25:05;;;;;;;5.75;2.97;;;13.70;52.20;;;;;;6246395;28;20036;-76
2021/11/09 02:28:06;;;;;;;9.43;3.50;;;13.70;52.10;;;;;;6260376;28;20025;-76
2021/11/09 02:31:08;;;;;;;7.20;3.72;;;13.70;52.70;;;;;;6264016;28;20052;-76
2021/11/09 02:34:10;;;;;;;11.48;3.55;;;13.60;52.20;;;;;;6260991;28;20124;-75
2021/11/09 02:37:11;;;;;;;9.35;4.38;;;13.60;52.20;;;;;;6261420;28;20087;-76
2021/11/09 02:40:12;;;;;;;7.75;4.18;;;13.60;52.30;;;;;;6263448;28;20703;-76
2021/11/09 02:43:15;;;;;;;7.45;3.53;;;13.60;52.40;;;;;;6265242;28;20033;-76
2021/11/09 02:49:30;;;;;;;8.88;3.97;;;13.60;52.50;;;;;;6270128;28;20045;-77
2021/11/09 02:52:33;;;;;;;5.90;3.70;;;13.50;52.60;;;;;;6269881;28;20060;-76
2021/11/09 02:55:40;;;;;;;6.50;3.55;;;13.60;52.60;;;;;;6256422;28;20053;-76
2021/11/09 03:02:33;;;;;;;4.50;3.13;;;13.50;52.60;;;;;;6272475;28;20067;-76
2021/11/09 03:05:46;;;;;;;;;;;13.50;52.70;;;;;;6259099;28;20107;-76
2021/11/09 03:12:12;;;;;;;8.25;3.60;;;13.60;52.80;;;;;;6235594;28;20513;-76
2021/11/09 03:15:16;;;;;;;9.15;3.38;;;13.60;52.80;;;;;;6235668;28;20038;-77
2021/11/09 03:18:22;;;;;;;7.10;3.47;;;13.50;52.80;;;;;;6232627;28;20040;-77
2021/11/09 03:47:48;;;;;;;8.95;3.47;;;13.20;52.90;;;;;;6213383;28;20057;-76
2021/11/09 03:50:49;;;;;;;8.18;3.53;;;13.20;53.10;;;;;;6267054;28;20039;-76
2021/11/09 03:53:51;;;;;;;11.00;3.28;;;13.10;53.10;;;;;;6269494;28;20020;-76
2021/11/09 03:56:57;;;;;;;9.77;4.03;;;13.10;53.20;;;;;;6270610;28;20114;-77
2021/11/09 04:00:47;;;;;;;8.32;3.72;;;13.10;53.30;;;;;;6268781;28;20043;-76
2021/11/09 04:06:46;;;;;;;5.38;3.40;;;13.00;53.40;;;;;;6271393;28;20025;-76
2021/11/09 04:25:52;;;;;;;10.35;3.50;;;12.90;53.60;;;;;;6268962;28;20402;-75
2021/11/09 04:29:19;;;;;;;6.70;3.30;;;12.90;53.50;;;;;;6252804;28;20053;-75
2021/11/09 04:49:12;;;;;;;13.90;3.53;;;12.70;52.70;;;;;;6268764;28;20446;-76
2021/11/09 05:02:12;;;;;;;8.63;3.33;;;12.70;52.70;;;;;;6268522;28;20022;-77
2021/11/09 05:11:40;;;;;;;9.85;3.63;;;12.60;52.60;;;;;;6267859;28;20024;-77
2021/11/09 05:14:41;;;;;;;8.40;3.38;;;12.60;52.70;;;;;;6254470;28;20465;-77
2021/11/09 05:17:42;;;;;;;14.35;3.53;;;12.60;52.70;;;;;;6265662;28;20104;-77
2021/11/09 05:20:44;;;;;;;7.35;3.25;;;12.50;52.80;;;;;;6266121;28;20025;-75
2021/11/09 05:23:45;;;;;;;7.47;3.03;;;12.50;52.80;;;;;;6267859;28;20465;-75
2021/11/09 05:26:46;;;;;;;8.60;3.40;;;12.50;52.80;;;;;;6266143;28;20033;-75
2021/11/09 05:29:47;;;;;;;5.38;2.80;;;12.50;52.80;;;;;;6250805;28;20091;-77
2021/11/09 05:32:51;;;;;;;5.80;2.92;;;12.50;52.70;;;;;;6252431;28;20032;-77
2021/11/09 05:35:52;;;;;;;6.57;3.63;;;12.50;52.60;;;;;;6265799;28;20030;-76
2021/11/09 05:38:57;;;;;;;9.07;3.25;;;12.40;52.60;;;;;;6253387;28;20079;-76
2021/11/09 05:41:59;;;;;;;9.82;3.85;;;12.40;52.70;;;;;;6270132;28;20036;-76
2021/11/09 05:45:01;;;;;;;9.27;3.35;;;12.30;52.70;;;;;;6259100;28;20048;-76
2021/11/09 05:48:02;;;;;;;9.65;3.30;;;12.30;52.80;;;;;;6259980;28;20156;-76
2021/11/09 05:51:04;;;;;;;10.50;3.60;;;12.30;52.80;;;;;;6263147;28;20111;-76
2021/11/09 05:54:06;;;;;;;10.02;3.22;;;12.30;52.80;;;;;;6262817;28;20472;-78
2021/11/09 05:57:07;;;;;;;8.13;3.30;;;12.30;52.80;;;;;;6268416;28;20162;-80
2021/11/09 06:00:10;;;;;;;8.98;3.08;;;12.30;52.80;;;;;;6262982;28;20033;-78
2021/11/09 06:03:14;;;;;;;8.90;2.95;;;12.30;52.80;;;;;;6257505;28;20037;-75
2021/11/09 06:06:15;;;;;;;8.18;3.15;;;12.30;52.90;;;;;;6265859;28;20445;-73
2021/11/09 06:09:16;;;;;;;6.18;3.08;;;12.20;52.90;;;;;;6259880;28;20087;-74
2021/11/09 06:12:17;;;;;;;8.13;3.88;;;12.20;52.90;;;;;;6265362;28;20057;-72
2021/11/09 06:15:18;;;;;;;6.97;3.22;;;12.20;52.90;;;;;;6261798;28;20025;-73
2021/11/09 06:18:19;;;;;;;5.97;3.13;;;12.20;52.90;;;;;;6268911;28;20529;-73
2021/11/09 06:21:20;;;;;;;8.15;3.25;;;12.10;52.80;;;;;;6268666;28;20111;-73
2021/11/09 06:24:23;;;;;;;5.20;2.72;;;12.10;52.90;;;;;;6266546;28;20043;-74
2021/11/09 06:27:24;;;;;;;12.10;3.60;;;12.10;52.90;;;;;;6266906;28;20016;-73
2021/11/09 06:30:25;;;;;;;11.38;2.75;;;12.10;53.00;;;;;;6271012;28;20048;-74
2021/11/09 06:33:27;;;;;;;9.52;3.20;;;12.10;53.00;;;;;;6268840;28;20021;-74
2021/11/09 06:36:28;;;;;;;9.25;3.47;;;12.10;53.10;;;;;;6273382;28;20413;-72
2021/11/09 06:39:29;;;;;;;11.15;3.72;;;12.10;53.10;;;;;;6270841;28;20453;-72
2021/11/09 06:42:30;;;;;;;8.25;3.38;;;12.10;53.10;;;;;;6270280;28;20222;-72
2021/11/09 06:45:31;;;;;;;8.80;3.80;;;12.20;53.20;;;;;;6264154;28;20454;-73
2021/11/09 06:48:32;;;;;;;8.38;3.08;;;12.20;53.30;;;;;;6271752;28;20052;-73
2021/11/09 06:51:33;;;;;;;7.05;3.20;;;12.20;53.30;;;;;;6264576;28;20393;-73
2021/11/09 06:54:36;;;;;;;5.85;3.17;;;12.20;53.30;;;;;;6266818;28;20358;-73
2021/11/09 06:57:37;;;;;;;6.60;3.25;;;12.20;53.30;;;;;;6271924;28;20362;-73
2021/11/09 07:00:39;;;;;;;9.02;2.97;;;12.20;53.40;;;;;;6264179;28;20033;-73
2021/11/09 07:03:39;;;;;;;9.00;3.45;;;12.20;53.40;;;;;;6241132;28;20035;-73
2021/11/09 07:06:40;;;;;;;11.05;3.33;;;12.20;53.40;;;;;;6265088;28;20029;-74
2021/11/09 07:09:41;;;;;;;6.38;3.20;;;12.20;53.40;;;;;;6270241;28;20500;-73
2021/11/09 07:12:43;;;;;;;9.55;3.10;;;12.20;53.30;;;;;;6269905;28;20029;-73
2021/11/09 07:15:44;;;;;;;8.07;3.33;;;12.30;53.40;;;;;;6249833;28;20030;-73
2021/11/09 07:18:45;;;;;;;7.93;3.10;;;12.20;53.40;;;;;;6272882;28;20481;-71
2021/11/09 07:21:47;;;;;;;11.98;3.58;;;12.30;53.50;;;;;;6268305;28;20034;-77
2021/11/09 07:24:48;;;;;;;9.73;3.45;;;12.20;53.40;;;;;;6265844;28;20029;-76
2021/11/09 07:27:49;;;;;;;9.40;3.78;;;12.30;53.40;;;;;;6272194;28;20086;-76
2021/11/09 07:31:02;;;;;;;12.38;3.28;;;12.20;53.30;;;;;;6269899;28;20040;-75
2021/11/09 07:34:03;;;;;;;6.72;2.90;;;12.20;53.40;;;;;;6267213;28;20022;-75
2021/11/09 07:37:03;;;;;;;11.88;4.38;;;12.20;53.40;;;;;;6269960;28;20017;-75
2021/11/09 07:40:07;;;;;;;7.72;3.28;;;12.20;53.30;;;;;;6270843;28;20029;-75
2021/11/09 07:43:07;;;;;;;8.77;3.38;;;12.20;53.20;;;;;;6250998;28;20410;-75
2021/11/09 07:46:09;;;;;;;8.05;3.72;;;12.30;53.20;;;;;;6270824;28;20021;-78
2021/11/09 07:49:10;;;;;;;13.55;3.40;;;12.40;53.00;;;;;;6251687;28;20029;-76
2021/11/09 07:52:12;;;;;;;10.43;3.03;;;12.40;52.80;;;;;;6267858;28;20028;-75
2021/11/09 07:55:19;;;;;;;12.40;3.72;;;12.40;52.80;;;;;;6270216;28;20031;-76
2021/11/09 07:58:31;;;;;;;8.68;3.55;;;12.50;52.80;;;;;;6265548;28;20415;-75
2021/11/09 08:01:42;;;;;;;10.95;3.60;;;12.60;52.70;;;;;;6263872;28;20033;-77
2021/11/09 08:04:50;;;;;;;7.90;3.17;;;12.60;52.40;;;;;;6270384;28;20033;-76
2021/11/09 08:08:01;;;;;;;10.35;3.40;;;12.80;52.20;;;;;;6264302;28;20060;-75
2021/11/09 08:11:28;;;;;;;6.97;2.75;;;12.70;51.90;;;;;;6265681;28;20029;-74
2021/11/09 08:14:29;;;;;;;8.00;3.67;;;12.70;51.80;;;;;;6267072;28;20028;-73
2021/11/09 08:17:30;;;;;;;12.23;3.28;;;12.60;51.70;;;;;;6267300;28;20033;-73
2021/11/09 08:20:31;;;;;;;10.80;3.58;;;12.60;51.70;;;;;;6247483;28;20052;-72
2021/11/09 08:23:32;;;;;;;11.23;3.47;;;12.60;51.70;;;;;;6268119;28;20090;-72
2021/11/09 08:26:33;;;;;;;12.05;3.67;;;12.60;51.60;;;;;;6264283;28;20366;-71
2021/11/09 08:29:34;;;;;;;15.85;4.80;;;12.70;51.50;;;;;;6262909;28;20655;-72
2021/11/09 08:32:36;;;;;;;12.18;4.18;;;12.70;51.40;;;;;;6268150;28;20043;-72
2021/11/09 08:35:37;;;;;;;9.43;4.00;;;12.70;51.40;;;;;;6266801;28;20021;-71
2021/11/09 08:38:38;;;;;;;13.98;4.32;;;12.80;51.30;;;;;;6265815;28;20025;-72
2021/11/09 08:41:42;;;;;;;10.52;3.97;;;12.80;51.20;;;;;;6245709;28;20110;-72
2021/11/09 08:48:24;;;;;;;13.30;3.90;;;12.80;51.10;;;;;;6258836;28;20045;-74
2021/11/09 08:51:26;;;;;;;9.25;3.35;;;12.90;51.10;;;;;;6240721;28;20540;-75
2021/11/09 08:54:32;;;;;;;17.48;5.38;;;12.90;50.90;;;;;;6243798;28;20036;-75
2021/11/09 09:04:15;;;;;;;13.27;4.28;;;12.90;50.90;;;;;;6255705;28;20078;-73
2021/11/09 09:07:16;;;;;;;11.65;3.70;;;13.00;51.00;;;;;;6259307;28;20032;-74
2021/11/09 09:10:18;;;;;;;6.75;3.22;;;13.00;50.70;;;;;;6263732;28;20047;-74
2021/11/09 09:13:19;;;;;;;15.35;4.22;;;13.10;50.70;;;;;;6261609;28;20108;-74
2021/11/09 09:16:20;;;;;;;16.42;6.43;;;13.10;50.60;;;;;;6264541;28;20037;-73
2021/11/09 09:19:27;;;;;;;16.08;4.18;;;13.10;50.60;;;;;;6263333;28;20033;-75
2021/11/09 09:22:41;;;;;;;17.00;5.75;;;13.10;51.30;;;;;;6260729;28;20423;-73
2021/11/09 09:52:34;;;;;;;13.98;4.13;;;13.70;49.50;;;;;;6272707;28;20086;-75
2021/11/09 09:55:48;;;;;;;9.20;4.38;;;13.60;49.30;;;;;;6266064;28;20048;-74
2021/11/09 09:58:49;;;;;;;8.32;4.15;;;13.50;49.50;;;;;;6265686;28;20032;-73
2021/11/09 10:02:14;;;;;;;9.90;4.65;;;13.50;49.70;;;;;;6269238;28;20031;-74
2021/11/09 10:05:15;;;;;;;22.80;8.25;;;13.50;49.80;;;;;;6271840;28;20102;-74
2021/11/09 10:08:20;;;;;;;31.23;8.43;;;13.50;49.80;;;;;;6269749;28;20029;-73
2021/11/09 10:11:29;;;;;;;27.70;10.30;;;13.50;49.70;;;;;;6268379;28;20058;-73
2021/11/09 10:14:34;;;;;;;18.88;7.85;;;13.60;49.60;;;;;;6269861;28;20017;-74
2021/11/09 10:17:39;;;;;;;38.80;15.57;;;13.60;49.50;;;;;;6264364;28;20032;-74
2021/11/09 10:20:49;;;;;;;21.58;7.38;;;13.80;49.40;;;;;;6263962;28;20036;-73
2021/11/09 10:23:50;;;;;;;23.00;8.25;;;14.00;49.20;;;;;;6260068;28;20096;-73
2021/11/09 10:26:52;;;;;;;11.02;4.53;;;14.20;49.00;;;;;;6266890;28;20472;-73
2021/11/09 10:29:55;;;;;;;12.30;4.88;;;14.30;48.70;;;;;;6271506;28;20049;-73
2021/11/09 10:32:56;;;;;;;12.07;4.45;;;14.40;48.20;;;;;;6270767;28;20382;-74
2021/11/09 10:35:57;;;;;;;9.52;4.25;;;14.50;48.10;;;;;;6272436;28;20028;-75
2021/11/09 10:39:18;;;;;;;8.60;4.57;;;14.50;48.00;;;;;;6270548;28;20025;-75
2021/11/09 10:42:25;;;;;;;23.58;7.72;;;14.50;48.00;;;;;;6270673;28;20022;-74
2021/11/09 10:45:30;;;;;;;23.73;8.25;;;14.50;48.00;;;;;;6271735;28;20025;-74
2021/11/09 10:48:32;;;;;;;25.60;8.50;;;14.60;48.10;;;;;;6271551;28;20457;-73
2021/11/09 10:51:53;;;;;;;28.00;8.65;;;14.60;47.80;;;;;;6268170;28;20065;-74
2021/11/09 11:04:15;;;;;;;20.42;7.15;;;16.30;45.20;;;;;;6261390;28;20033;-75
2021/11/09 11:07:16;;;;;;;14.23;4.63;;;16.90;44.50;;;;;;6273497;28;20332;-74
2021/11/09 11:10:26;;;;;;;10.68;5.85;;;17.50;43.40;;;;;;6268917;28;20051;-74
2021/11/09 11:13:27;;;;;;;11.90;4.65;;;18.00;42.40;;;;;;6256117;28;20112;-75
2021/11/09 11:16:27;;;;;;;18.88;6.45;;;18.50;41.60;;;;;;6254302;28;20035;-74
2021/11/09 11:19:36;;;;;;;17.92;4.82;;;19.00;40.70;;;;;;6258934;28;20040;-75
2021/11/09 11:22:37;;;;;;;6.53;3.80;;;19.40;39.40;;;;;;6256933;28;20033;-73
2021/11/09 11:25:38;;;;;;;7.90;3.50;;;19.80;37.90;;;;;;6258563;28;20029;-75
2021/11/09 11:28:41;;;;;;;12.13;5.65;;;20.00;36.60;;;;;;6261369;28;20025;-74
2021/11/09 11:31:42;;;;;;;15.45;6.43;;;20.20;36.20;;;;;;6253619;28;20029;-73
2021/11/09 11:34:44;;;;;;;8.00;4.72;;;20.60;35.90;;;;;;6254543;28;20316;-74
2021/11/09 11:37:44;;;;;;;12.30;4.82;;;21.00;34.70;;;;;;6259391;28;20029;-74
2021/11/09 11:40:46;;;;;;;8.05;4.30;;;21.30;33.70;;;;;;6257404;28;20029;-75
2021/11/09 11:43:47;;;;;;;8.82;3.97;;;21.30;33.70;;;;;;6264217;28;20025;-74
2021/11/09 11:46:50;;;;;;;9.20;3.85;;;20.80;34.20;;;;;;6271293;28;20033;-75
2021/11/09 11:49:57;;;;;;;19.75;6.63;;;20.40;35.10;;;;;;6267051;28;20060;-73
2021/11/09 11:52:58;;;;;;;10.48;5.65;;;20.30;35.90;;;;;;6263158;28;20052;-73
2021/11/09 11:55:59;;;;;;;10.90;4.25;;;20.00;35.90;;;;;;6267453;28;20017;-75
2021/11/09 11:59:00;;;;;;;6.15;3.53;;;19.60;36.20;;;;;;6270205;28;20048;-75
2021/11/09 12:02:10;;;;;;;7.50;3.33;;;19.20;36.80;;;;;;6269180;28;20174;-73
2021/11/09 12:05:35;;;;;;;9.65;3.45;;;18.90;37.10;;;;;;6269234;28;20563;-74
2021/11/09 12:08:42;;;;;;;10.80;3.60;;;18.40;37.70;;;;;;6272476;28;20025;-74
2021/11/09 12:11:46;;;;;;;5.70;2.78;;;18.10;38.20;;;;;;6265104;28;20032;-75
2021/11/09 12:14:55;;;;;;;6.05;3.65;;;17.80;38.60;;;;;;6255496;28;20033;-73
2021/11/09 12:17:56;;;;;;;11.45;5.53;;;17.60;38.90;;;;;;6239588;28;20032;-73
2021/11/09 12:21:02;;;;;;;22.27;10.02;;;17.40;39.10;;;;;;6260432;28;20115;-74
2021/11/09 12:24:12;;;;;;;9.40;3.60;;;17.30;39.30;;;;;;6257136;28;20466;-74
2021/11/09 12:27:13;;;;;;;4.55;2.67;;;17.20;39.40;;;;;;6255355;28;20396;-74
2021/11/09 12:30:37;;;;;;;5.72;2.88;;;17.10;39.50;;;;;;6256324;28;20041;-74
2021/11/09 12:33:50;;;;;;;7.68;3.67;;;16.90;40.40;;;;;;6258352;28;20603;-73
2021/11/09 12:37:17;;;;;;;9.38;3.67;;;16.90;40.00;;;;;;6255455;28;20458;-75
2021/11/09 12:40:44;;;;;;;7.75;3.13;;;16.70;40.10;;;;;;6256198;28;20465;-74
2021/11/09 12:43:56;;;;;;;5.22;3.05;;;16.60;40.40;;;;;;6265458;28;20544;-74
2021/11/09 12:47:11;;;;;;;11.80;3.72;;;16.50;40.70;;;;;;6254763;28;20037;-73
2021/11/09 12:50:13;;;;;;;9.07;3.13;;;16.50;40.80;;;;;;6268736;28;20091;-74
2021/11/09 12:53:18;;;;;;;7.97;2.67;;;16.40;40.40;;;;;;6273631;28;20100;-74
2021/11/09 12:56:33;;;;;;;7.05;2.95;;;16.40;40.50;;;;;;6271784;28;20017;-73
2021/11/09 13:02:43;;;;;;;11.13;5.60;;;16.30;40.80;;;;;;6273496;28;20021;-73
2021/11/09 13:05:52;;;;;;;10.65;3.78;;;16.30;40.90;;;;;;6271060;28;21331;-74
2021/11/09 13:09:08;;;;;;;5.35;2.97;;;16.30;41.00;;;;;;6268390;28;20025;-74
2021/11/09 13:12:16;;;;;;;5.45;2.47;;;16.30;41.00;;;;;;6268261;28;20024;-73
2021/11/09 13:15:19;;;;;;;6.07;2.75;;;16.20;41.10;;;;;;6270979;28;20420;-74
2021/11/09 13:18:20;;;;;;;7.95;3.22;;;16.20;41.20;;;;;;6271390;28;20123;-74
2021/11/09 13:21:26;;;;;;;6.88;3.08;;;16.20;41.20;;;;;;6272711;28;20033;-73
2021/11/09 13:24:26;;;;;;;4.18;2.33;;;16.20;41.20;;;;;;6271133;28;20037;-73
2021/11/09 13:27:47;;;;;;;4.38;2.60;;;16.30;41.30;;;;;;6270504;28;20119;-74
2021/11/09 13:31:01;;;;;;;8.27;2.65;;;16.30;41.20;;;;;;6270898;28;20080;-74
2021/11/09 13:34:04;;;;;;;6.13;2.88;;;16.30;41.80;;;;;;6271627;28;20094;-74
2021/11/09 13:37:05;;;;;;;7.85;2.40;;;16.30;41.20;;;;;;6273005;28;20097;-74
2021/11/09 13:40:08;;;;;;;9.57;2.72;;;16.40;41.30;;;;;;6271572;28;20496;-74
2021/11/09 13:43:11;;;;;;;7.30;2.75;;;16.40;41.30;;;;;;6261191;28;20583;-72
2021/11/09 13:46:16;;;;;;;6.95;2.90;;;16.40;41.20;;;;;;6263160;28;20049;-74
2021/11/09 13:49:20;;;;;;;6.95;2.90;;;16.40;41.30;;;;;;6254461;28;20492;-74
2021/11/09 13:52:21;;;;;;;4.82;2.33;;;16.50;41.40;;;;;;6271277;28;20033;-73
2021/11/09 13:55:23;;;;;;;5.78;3.00;;;16.60;41.30;;;;;;6270729;28;20465;-74
2021/11/09 13:58:24;;;;;;;4.47;2.58;;;16.60;41.10;;;;;;6269637;28;20021;-74
2021/11/09 14:01:41;;;;;;;9.35;3.42;;;16.70;41.20;;;;;;6271678;28;20361;-74
2021/11/09 14:17:33;;;;;;;12.48;3.60;;;16.70;41.30;;;;;;6267438;28;20025;-74
2021/11/09 14:20:33;;;;;;;10.20;2.78;;;16.80;41.40;;;;;;6270190;28;20029;-74
2021/11/09 14:23:38;;;;;;;5.07;3.10;;;16.80;41.30;;;;;;6267494;28;20035;-74
2021/11/09 14:26:41;;;;;;;10.93;3.33;;;16.80;41.40;;;;;;6269350;28;20029;-74
2021/11/09 14:29:54;;;;;;;11.25;3.45;;;16.70;41.70;;;;;;6269705;28;20053;-73
2021/11/09 14:33:21;;;;;;;10.90;3.78;;;16.70;42.10;;;;;;6266438;28;20513;-74
2021/11/09 14:36:25;;;;;;;10.27;3.92;;;16.60;42.30;;;;;;6272763;28;20053;-74
2021/11/09 14:39:27;;;;;;;6.63;3.50;;;16.60;42.50;;;;;;6257398;28;20017;-74
2021/11/09 14:45:52;;;;;;;16.67;3.88;;;16.50;42.80;;;;;;6270118;28;20020;-74
2021/11/09 14:49:01;;;;;;;9.40;3.15;;;16.50;42.90;;;;;;6254352;28;20086;-73
2021/11/09 14:52:07;;;;;;;7.80;3.67;;;16.50;43.10;;;;;;6265443;28;20111;-74
2021/11/09 14:55:31;;;;;;;14.93;4.47;;;16.40;43.20;;;;;;6269230;28;20112;-73
2021/11/09 14:58:59;;;;;;;8.18;3.85;;;16.30;43.40;;;;;;6270516;28;20061;-73
2021/11/09 15:02:02;;;;;;;8.95;3.58;;;16.20;43.70;;;;;;6271160;28;20037;-73
2021/11/09 15:05:05;;;;;;;11.77;4.07;;;16.20;43.90;;;;;;6269881;28;20025;-73
2021/11/09 15:11:16;;;;;;;8.02;3.63;;;15.90;44.40;;;;;;6265378;28;20044;-73
2021/11/09 15:27:56;;;;;;;9.15;4.25;;;15.40;45.40;;;;;;6254854;28;20505;-74
2021/11/09 15:31:02;;;;;;;15.35;3.50;;;15.30;45.50;;;;;;6263925;28;20049;-73
2021/11/09 15:37:27;;;;;;;8.07;4.00;;;15.20;46.00;;;;;;6267531;28;20442;-76
2021/11/09 15:40:28;;;;;;;13.65;4.40;;;15.10;46.10;;;;;;6262633;28;20141;-73
2021/11/09 15:43:32;;;;;;;13.88;4.78;;;15.10;46.30;;;;;;6254967;28;20029;-73
2021/11/09 15:46:34;;;;;;;13.57;4.07;;;15.10;46.40;;;;;;6263553;28;20025;-74
2021/11/09 15:49:34;;;;;;;15.38;4.85;;;15.00;46.60;;;;;;6265292;28;20021;-73
2021/11/09 15:52:35;;;;;;;14.32;4.35;;;14.90;46.80;;;;;;6256658;28;20108;-74
2021/11/09 15:55:36;;;;;;;10.50;3.95;;;14.80;46.90;;;;;;6269530;28;20044;-74
2021/11/09 15:58:37;;;;;;;11.77;3.95;;;14.70;47.10;;;;;;6267761;28;20033;-74
2021/11/09 16:01:40;;;;;;;8.57;4.15;;;14.70;47.30;;;;;;6266236;28;20029;-74
2021/11/09 16:04:45;;;;;;;10.05;5.28;;;14.60;47.40;;;;;;6270495;28;20025;-74
2021/11/09 16:07:49;;;;;;;24.60;4.63;;;14.50;47.50;;;;;;6267115;28;20082;-74
2021/11/09 16:10:51;;;;;;;11.68;4.95;;;14.50;47.70;;;;;;6267554;28;20021;-74
2021/11/09 16:13:52;;;;;;;13.48;4.40;;;14.40;47.70;;;;;;6263417;28;20024;-74
2021/11/09 16:16:53;;;;;;;10.45;4.05;;;14.40;47.80;;;;;;6267606;28;20052;-75
2021/11/09 16:19:54;;;;;;;9.77;4.68;;;14.30;47.90;;;;;;6268373;28;20040;-75
2021/11/09 16:22:58;;;;;;;10.10;3.50;;;14.30;47.90;;;;;;6267886;28;20363;-75
2021/11/09 16:25:59;;;;;;;8.57;4.03;;;14.30;48.00;;;;;;6268809;28;20028;-74
2021/11/09 16:28:59;;;;;;;8.40;4.80;;;14.20;48.20;;;;;;6269965;28;20045;-75
2021/11/09 16:32:02;;;;;;;9.57;4.22;;;14.20;48.40;;;;;;6267856;28;20044;-74
2021/11/09 16:38:33;;;;;;;10.07;4.68;;;14.10;48.90;;;;;;6269901;28;20080;-75
2021/11/09 16:41:36;;;;;;;11.00;4.47;;;14.00;49.30;;;;;;6266095;28;20358;-74
2021/11/09 16:44:39;;;;;;;12.77;4.40;;;13.90;49.50;;;;;;6267125;28;20108;-73
2021/11/09 16:47:41;;;;;;;12.93;5.20;;;13.90;50.00;;;;;;6260527;28;20029;-75
2021/11/09 16:53:54;;;;;;;14.00;4.97;;;13.60;50.40;;;;;;6268396;28;20025;-74
2021/11/09 16:57:22;;;;;;;10.13;4.68;;;13.60;50.50;;;;;;6265460;28;20036;-75
2021/11/09 17:06:54;;;;;;;10.43;4.53;;;13.50;50.80;;;;;;6266164;28;20021;-73
2021/11/09 18:20:04;;;;;;;34.17;13.70;;;12.90;53.10;;;;;;6298227;28;20162;-74
2021/11/09 18:23:06;;;;;;;;;;;12.90;52.80;;;;;;6271882;28;20029;-73
2021/11/09 18:26:07;;;;;;;18.80;8.15;;;12.90;52.60;;;;;;6267694;28;19973;-74
2021/11/09 18:29:09;;;;;;;24.42;7.95;;;13.00;52.40;;;;;;6297883;28;20135;-75
2021/11/09 18:32:11;;;;;;;21.25;6.38;;;13.00;52.50;;;;;;6286728;28;20036;-74
2021/11/09 18:35:16;;;;;;;26.02;8.57;;;13.00;52.40;;;;;;6283074;28;20033;-74
2021/11/09 18:38:18;;;;;;;20.30;7.57;;;13.00;52.40;;;;;;6292826;28;20037;-76
2021/11/09 18:41:19;;;;;;;38.63;12.05;;;13.00;52.30;;;;;;6286622;28;20423;-75
2021/11/09 18:44:20;;;;;;;37.20;12.77;;;13.00;52.20;;;;;;6287575;28;20510;-74
2021/11/09 18:47:21;;;;;;;19.20;8.38;;;13.10;52.10;;;;;;6297934;28;20046;-74
2021/11/09 18:50:25;;;;;;;16.65;6.72;;;13.00;52.10;;;;;;6299431;28;20054;-74
2021/11/09 18:53:26;;;;;;;21.88;6.32;;;13.00;52.10;;;;;;6256952;28;20105;-74
2021/11/09 18:56:27;;;;;;;23.45;8.43;;;13.00;52.10;;;;;;6270369;28;20511;-74
2021/11/09 18:59:28;;;;;;;16.38;7.93;;;12.90;52.10;;;;;;6267657;28;20032;-74
2021/11/09 19:02:29;;;;;;;14.85;6.10;;;12.90;52.20;;;;;;6273592;28;20029;-75
2021/11/09 19:05:31;;;;;;;18.88;7.63;;;12.90;52.20;;;;;;6269254;28;20096;-74
2021/11/09 19:08:36;;;;;;;17.90;6.68;;;12.90;52.20;;;;;;6270787;28;20032;-77
2021/11/09 19:11:37;;;;;;;15.07;6.47;;;12.90;52.30;;;;;;6268074;28;20041;-75
2021/11/09 19:14:38;;;;;;;15.82;6.40;;;12.90;52.40;;;;;;6266211;28;20312;-74
2021/11/09 19:17:40;;;;;;;14.93;6.50;;;12.80;52.50;;;;;;6286212;28;20032;-77
2021/11/09 19:20:41;;;;;;;16.58;8.80;;;12.80;52.70;;;;;;6274801;28;20029;-76
2021/11/09 19:23:43;;;;;;;28.70;12.68;;;12.70;52.70;;;;;;6272768;28;20037;-74
2021/11/09 19:26:45;;;;;;;27.33;10.30;;;12.60;52.80;;;;;;6274517;28;20067;-74
2021/11/09 19:29:46;;;;;;;46.25;18.08;;;12.60;52.90;;;;;;6269124;28;20036;-74
2021/11/09 19:32:48;;;;;;;27.05;11.20;;;12.50;53.00;;;;;;6268198;28;20421;-76
2021/11/09 19:35:51;;;;;;;62.38;19.13;;;12.50;53.10;;;;;;6257093;28;20078;-75
2021/11/09 19:38:52;;;;;;;29.42;12.40;;;12.50;53.10;;;;;;6269684;28;20033;-74
2021/11/09 19:41:53;;;;;;;20.33;8.82;;;12.50;53.10;;;;;;6267399;28;20519;-73
2021/11/09 19:44:55;;;;;;;23.27;8.48;;;12.50;53.10;;;;;;6265883;28;20053;-72
2021/11/09 19:47:59;;;;;;;46.17;17.75;;;12.50;53.10;;;;;;6268545;28;20025;-74
2021/11/09 19:51:02;;;;;;;30.17;9.55;;;12.50;53.10;;;;;;6282432;28;20119;-74
2021/11/09 19:54:08;;;;;;;33.25;12.82;;;12.50;53.10;;;;;;6255030;28;20040;-73
2021/11/09 19:57:09;;;;;;;35.95;14.00;;;12.50;53.20;;;;;;6267823;28;20065;-74
2021/11/09 20:00:11;;;;;;;38.20;14.45;;;12.40;53.20;;;;;;6266615;28;20036;-73
2021/11/09 20:03:19;;;;;;;50.65;19.50;;;12.40;53.40;;;;;;6266728;28;20028;-74
2021/11/09 20:06:23;;;;;;;44.75;17.60;;;12.30;53.50;;;;;;6255909;28;20025;-74
2021/11/09 20:09:25;;;;;;;30.02;10.18;;;12.30;53.60;;;;;;6265161;28;20033;-75
2021/11/09 20:12:28;;;;;;;30.23;7.57;;;12.30;53.70;;;;;;6263775;28;20021;-75